sensor_id;sensor_type;location;lat;lon;timestamp;temperature;humidity
23143;DHT22;11740;51.168;4.112;2022-12-17T00:00:12;-3.30;1.00
23143;DHT22;11740;51.168;4.112;2022-12-17T00:02:57;-3.30;1.00
23143;DHT22;11740;51.168;4.112;2022-12-17T00:05:44;-3.40;1.00
23143;DHT22;11740;51.168;4.112;2022-12-17T00:08:29;-3.40;1.00
23143;DHT22;11740;51.168;4.112;2022-12-17T00:11:15;-3.30;1.00
23143;DHT22;11740;51.168;4.112;2022-12-17T00:14:00;-3.40;1.00
23143;DHT22;11740;51.168;4.112;2022-12-17T00:16:45;-3.40;1.00
23143;DHT22;11740;51.168;4.112;2022-12-17T00:19:31;-3.40;1.00
23143;DHT22;11740;51.168;4.112;2022-12-17T00:22:17;-3.40;1.00
23143;DHT22;11740;51.168;4.112;2022-12-17T00:25:03;-3.40;1.00
23143;DHT22;11740;51.168;4.112;2022-12-17T00:27:49;-3.40;1.00
23143;DHT22;11740;51.168;4.112;2022-12-17T00:30:35;-3.40;1.00
23143;DHT22;11740;51.168;4.112;2022-12-17T00:33:20;-3.40;1.00
23143;DHT22;11740;51.168;4.112;2022-12-17T00:36:05;-3.40;1.00
23143;DHT22;11740;51.168;4.112;2022-12-17T00:38:51;-3.40;1.00
23143;DHT22;11740;51.168;4.112;2022-12-17T00:41:37;-3.40;1.00
23143;DHT22;11740;51.168;4.112;2022-12-17T00:44:22;-3.40;1.00
23143;DHT22;11740;51.168;4.112;2022-12-17T00:47:08;-3.40;1.00
23143;DHT22;11740;51.168;4.112;2022-12-17T00:49:53;-3.50;1.00
23143;DHT22;11740;51.168;4.112;2022-12-17T00:52:39;-3.50;1.00
23143;DHT22;11740;51.168;4.112;2022-12-17T00:55:24;-3.60;1.00
23143;DHT22;11740;51.168;4.112;2022-12-17T00:58:10;-3.60;1.00
23143;DHT22;11740;51.168;4.112;2022-12-17T01:01:06;-3.60;1.00
23143;DHT22;11740;51.168;4.112;2022-12-17T01:03:51;-3.60;1.00
23143;DHT22;11740;51.168;4.112;2022-12-17T01:06:36;-3.60;1.00
23143;DHT22;11740;51.168;4.112;2022-12-17T01:09:22;-3.60;1.00
23143;DHT22;11740;51.168;4.112;2022-12-17T01:12:07;-3.60;1.00
23143;DHT22;11740;51.168;4.112;2022-12-17T01:14:53;-3.60;1.00
23143;DHT22;11740;51.168;4.112;2022-12-17T01:17:38;-3.60;1.00
23143;DHT22;11740;51.168;4.112;2022-12-17T01:20:24;-3.60;1.00
23143;DHT22;11740;51.168;4.112;2022-12-17T01:23:09;-3.70;1.00
23143;DHT22;11740;51.168;4.112;2022-12-17T01:25:55;-3.70;1.00
23143;DHT22;11740;51.168;4.112;2022-12-17T01:28:41;-3.70;1.00
23143;DHT22;11740;51.168;4.112;2022-12-17T01:31:27;-3.70;1.00
23143;DHT22;11740;51.168;4.112;2022-12-17T01:34:12;-3.70;1.00
23143;DHT22;11740;51.168;4.112;2022-12-17T01:36:58;-3.70;1.00
23143;DHT22;11740;51.168;4.112;2022-12-17T01:39:43;-3.80;1.00
23143;DHT22;11740;51.168;4.112;2022-12-17T01:42:40;-3.80;1.00
23143;DHT22;11740;51.168;4.112;2022-12-17T01:45:35;-3.80;1.00
23143;DHT22;11740;51.168;4.112;2022-12-17T01:48:23;-3.80;1.00
23143;DHT22;11740;51.168;4.112;2022-12-17T01:51:13;-3.80;1.00
23143;DHT22;11740;51.168;4.112;2022-12-17T01:53:59;-3.90;1.00
23143;DHT22;11740;51.168;4.112;2022-12-17T01:56:45;-3.90;1.00
23143;DHT22;11740;51.168;4.112;2022-12-17T01:59:42;-3.90;1.00
23143;DHT22;11740;51.168;4.112;2022-12-17T02:02:30;-3.90;1.00
23143;DHT22;11740;51.168;4.112;2022-12-17T02:05:16;-3.90;1.00
23143;DHT22;11740;51.168;4.112;2022-12-17T02:08:13;-3.90;1.00
23143;DHT22;11740;51.168;4.112;2022-12-17T02:11:13;-4.00;1.00
23143;DHT22;11740;51.168;4.112;2022-12-17T02:17:20;-4.00;1.00
23143;DHT22;11740;51.168;4.112;2022-12-17T02:23:25;-4.10;1.00
23143;DHT22;11740;51.168;4.112;2022-12-17T02:29:27;-4.10;1.00
23143;DHT22;11740;51.168;4.112;2022-12-17T02:32:14;-4.10;1.00
23143;DHT22;11740;51.168;4.112;2022-12-17T02:35:03;-4.10;1.00
23143;DHT22;11740;51.168;4.112;2022-12-17T02:37:54;-4.10;1.00
23143;DHT22;11740;51.168;4.112;2022-12-17T02:40:45;-4.20;1.00
23143;DHT22;11740;51.168;4.112;2022-12-17T02:43:31;-4.10;1.00
23143;DHT22;11740;51.168;4.112;2022-12-17T02:46:18;-4.20;1.00
23143;DHT22;11740;51.168;4.112;2022-12-17T02:49:04;-4.20;1.00
23143;DHT22;11740;51.168;4.112;2022-12-17T02:51:50;-4.20;1.00
23143;DHT22;11740;51.168;4.112;2022-12-17T02:54:35;-4.20;1.00
23143;DHT22;11740;51.168;4.112;2022-12-17T02:57:21;-4.40;1.00
23143;DHT22;11740;51.168;4.112;2022-12-17T03:00:10;-4.40;1.00
23143;DHT22;11740;51.168;4.112;2022-12-17T03:02:56;-4.40;1.00
23143;DHT22;11740;51.168;4.112;2022-12-17T03:05:41;-4.30;1.00
23143;DHT22;11740;51.168;4.112;2022-12-17T03:08:26;-4.40;1.00
23143;DHT22;11740;51.168;4.112;2022-12-17T03:11:12;-4.40;1.00
23143;DHT22;11740;51.168;4.112;2022-12-17T03:13:57;-4.40;1.00
23143;DHT22;11740;51.168;4.112;2022-12-17T03:16:43;-4.30;1.00
23143;DHT22;11740;51.168;4.112;2022-12-17T03:19:28;-4.40;1.00
23143;DHT22;11740;51.168;4.112;2022-12-17T03:22:13;-4.40;1.00
23143;DHT22;11740;51.168;4.112;2022-12-17T03:24:59;-4.40;1.00
23143;DHT22;11740;51.168;4.112;2022-12-17T03:27:44;-4.40;1.00
23143;DHT22;11740;51.168;4.112;2022-12-17T03:30:30;-4.40;1.00
23143;DHT22;11740;51.168;4.112;2022-12-17T03:33:15;-4.40;1.00
23143;DHT22;11740;51.168;4.112;2022-12-17T03:36:01;-4.50;1.00
23143;DHT22;11740;51.168;4.112;2022-12-17T03:38:47;-4.50;1.00
23143;DHT22;11740;51.168;4.112;2022-12-17T03:41:32;-4.50;1.00
23143;DHT22;11740;51.168;4.112;2022-12-17T03:44:18;-4.50;1.00
23143;DHT22;11740;51.168;4.112;2022-12-17T03:47:05;-4.50;1.00
23143;DHT22;11740;51.168;4.112;2022-12-17T03:49:50;-4.50;1.00
23143;DHT22;11740;51.168;4.112;2022-12-17T03:52:36;-4.50;1.00
23143;DHT22;11740;51.168;4.112;2022-12-17T03:55:21;-4.50;1.00
23143;DHT22;11740;51.168;4.112;2022-12-17T03:58:06;-4.60;1.00
23143;DHT22;11740;51.168;4.112;2022-12-17T04:00:52;-4.60;1.00
23143;DHT22;11740;51.168;4.112;2022-12-17T04:03:37;-4.60;1.00
23143;DHT22;11740;51.168;4.112;2022-12-17T04:06:23;-4.60;62.90
23143;DHT22;11740;51.168;4.112;2022-12-17T04:09:08;-4.60;11.10
23143;DHT22;11740;51.168;4.112;2022-12-17T04:11:54;-4.60;1.00
23143;DHT22;11740;51.168;4.112;2022-12-17T04:14:39;-4.60;1.00
23143;DHT22;11740;51.168;4.112;2022-12-17T04:17:25;-4.60;56.90
23143;DHT22;11740;51.168;4.112;2022-12-17T04:20:10;-4.70;99.90
23143;DHT22;11740;51.168;4.112;2022-12-17T04:22:56;-4.70;99.90
23143;DHT22;11740;51.168;4.112;2022-12-17T04:25:41;-4.70;99.90
23143;DHT22;11740;51.168;4.112;2022-12-17T04:28:27;-4.70;99.90
23143;DHT22;11740;51.168;4.112;2022-12-17T04:31:12;-4.70;99.90
23143;DHT22;11740;51.168;4.112;2022-12-17T04:33:58;-4.70;99.90
23143;DHT22;11740;51.168;4.112;2022-12-17T04:36:43;-4.70;99.90
23143;DHT22;11740;51.168;4.112;2022-12-17T04:39:29;-4.80;1.00
23143;DHT22;11740;51.168;4.112;2022-12-17T04:42:14;-4.80;1.00
23143;DHT22;11740;51.168;4.112;2022-12-17T04:45:00;-4.80;55.90
23143;DHT22;11740;51.168;4.112;2022-12-17T04:47:45;-4.80;1.00
23143;DHT22;11740;51.168;4.112;2022-12-17T04:50:31;-4.80;1.00
23143;DHT22;11740;51.168;4.112;2022-12-17T04:53:16;-4.80;1.00
23143;DHT22;11740;51.168;4.112;2022-12-17T04:56:02;-4.80;99.90
23143;DHT22;11740;51.168;4.112;2022-12-17T04:58:48;-4.80;99.90
23143;DHT22;11740;51.168;4.112;2022-12-17T05:01:33;-4.80;99.90
23143;DHT22;11740;51.168;4.112;2022-12-17T05:04:19;-4.80;99.90
23143;DHT22;11740;51.168;4.112;2022-12-17T05:07:04;-4.80;99.90
23143;DHT22;11740;51.168;4.112;2022-12-17T05:09:50;-4.80;99.90
23143;DHT22;11740;51.168;4.112;2022-12-17T05:12:35;-4.80;99.90
23143;DHT22;11740;51.168;4.112;2022-12-17T05:15:21;-4.80;99.90
23143;DHT22;11740;51.168;4.112;2022-12-17T05:18:07;-4.90;99.90
23143;DHT22;11740;51.168;4.112;2022-12-17T05:20:52;-4.90;99.90
23143;DHT22;11740;51.168;4.112;2022-12-17T05:23:38;-4.90;99.90
23143;DHT22;11740;51.168;4.112;2022-12-17T05:26:24;-4.90;99.90
23143;DHT22;11740;51.168;4.112;2022-12-17T05:29:12;-4.90;99.90
23143;DHT22;11740;51.168;4.112;2022-12-17T05:31:59;-4.90;99.90
23143;DHT22;11740;51.168;4.112;2022-12-17T05:34:44;-4.90;99.90
23143;DHT22;11740;51.168;4.112;2022-12-17T05:37:30;-4.90;99.90
23143;DHT22;11740;51.168;4.112;2022-12-17T05:40:15;-5.00;99.90
23143;DHT22;11740;51.168;4.112;2022-12-17T05:43:02;-5.00;99.90
23143;DHT22;11740;51.168;4.112;2022-12-17T05:45:49;-5.00;99.90
23143;DHT22;11740;51.168;4.112;2022-12-17T05:48:34;-5.00;99.90
23143;DHT22;11740;51.168;4.112;2022-12-17T05:51:20;-5.00;99.90
23143;DHT22;11740;51.168;4.112;2022-12-17T05:54:06;-5.00;1.00
23143;DHT22;11740;51.168;4.112;2022-12-17T05:56:52;-5.10;1.00
23143;DHT22;11740;51.168;4.112;2022-12-17T05:59:37;-5.10;79.90
23143;DHT22;11740;51.168;4.112;2022-12-17T06:02:23;-5.10;99.90
23143;DHT22;11740;51.168;4.112;2022-12-17T06:05:08;-5.10;99.90
23143;DHT22;11740;51.168;4.112;2022-12-17T06:08:01;-5.10;99.90
23143;DHT22;11740;51.168;4.112;2022-12-17T06:10:50;-5.10;99.90
23143;DHT22;11740;51.168;4.112;2022-12-17T06:13:35;-5.10;95.70
23143;DHT22;11740;51.168;4.112;2022-12-17T06:16:20;-5.10;74.80
23143;DHT22;11740;51.168;4.112;2022-12-17T06:19:06;-5.10;99.90
23143;DHT22;11740;51.168;4.112;2022-12-17T06:21:51;-5.10;65.60
23143;DHT22;11740;51.168;4.112;2022-12-17T06:24:36;-5.10;87.90
23143;DHT22;11740;51.168;4.112;2022-12-17T06:27:22;-5.10;99.90
23143;DHT22;11740;51.168;4.112;2022-12-17T06:30:07;-5.10;80.50
23143;DHT22;11740;51.168;4.112;2022-12-17T06:33:03;-5.10;23.20
23143;DHT22;11740;51.168;4.112;2022-12-17T06:35:53;-5.10;1.00
23143;DHT22;11740;51.168;4.112;2022-12-17T06:38:48;-5.10;1.00
23143;DHT22;11740;51.168;4.112;2022-12-17T06:41:33;-5.10;1.00
23143;DHT22;11740;51.168;4.112;2022-12-17T06:44:27;-5.10;1.00
23143;DHT22;11740;51.168;4.112;2022-12-17T06:47:13;-5.10;1.00
23143;DHT22;11740;51.168;4.112;2022-12-17T06:49:58;-5.20;1.00
23143;DHT22;11740;51.168;4.112;2022-12-17T06:52:43;-5.20;1.00
23143;DHT22;11740;51.168;4.112;2022-12-17T06:55:29;-5.20;1.00
23143;DHT22;11740;51.168;4.112;2022-12-17T06:58:14;-5.20;1.00
23143;DHT22;11740;51.168;4.112;2022-12-17T07:00:59;-5.20;1.00
23143;DHT22;11740;51.168;4.112;2022-12-17T07:03:45;-5.20;11.40
23143;DHT22;11740;51.168;4.112;2022-12-17T07:06:31;-5.20;1.00
23143;DHT22;11740;51.168;4.112;2022-12-17T07:09:16;-5.30;1.00
23143;DHT22;11740;51.168;4.112;2022-12-17T07:12:02;-5.30;1.00
23143;DHT22;11740;51.168;4.112;2022-12-17T07:14:47;-5.30;1.00
23143;DHT22;11740;51.168;4.112;2022-12-17T07:17:33;-5.30;1.00
23143;DHT22;11740;51.168;4.112;2022-12-17T07:20:18;-5.30;1.00
23143;DHT22;11740;51.168;4.112;2022-12-17T07:23:03;-5.30;1.00
23143;DHT22;11740;51.168;4.112;2022-12-17T07:25:49;-5.30;1.00
23143;DHT22;11740;51.168;4.112;2022-12-17T07:28:35;-5.30;1.00
23143;DHT22;11740;51.168;4.112;2022-12-17T07:31:20;-5.30;1.00
23143;DHT22;11740;51.168;4.112;2022-12-17T07:34:06;-5.30;83.20
23143;DHT22;11740;51.168;4.112;2022-12-17T07:36:51;-5.30;99.90
23143;DHT22;11740;51.168;4.112;2022-12-17T07:39:44;-5.30;99.90
23143;DHT22;11740;51.168;4.112;2022-12-17T07:42:30;-5.30;50.30
23143;DHT22;11740;51.168;4.112;2022-12-17T07:45:15;-5.30;66.90
23143;DHT22;11740;51.168;4.112;2022-12-17T07:48:01;-5.30;99.90
23143;DHT22;11740;51.168;4.112;2022-12-17T07:50:47;-5.30;99.90
23143;DHT22;11740;51.168;4.112;2022-12-17T07:53:34;-5.40;44.70
23143;DHT22;11740;51.168;4.112;2022-12-17T07:56:19;-5.40;88.70
23143;DHT22;11740;51.168;4.112;2022-12-17T07:59:05;-5.40;99.90
23143;DHT22;11740;51.168;4.112;2022-12-17T08:01:51;-5.40;77.70
23143;DHT22;11740;51.168;4.112;2022-12-17T08:04:36;-5.40;32.90
23143;DHT22;11740;51.168;4.112;2022-12-17T08:07:21;-5.40;54.60
23143;DHT22;11740;51.168;4.112;2022-12-17T08:10:07;-5.40;99.90
23143;DHT22;11740;51.168;4.112;2022-12-17T08:12:57;-5.40;99.90
23143;DHT22;11740;51.168;4.112;2022-12-17T08:15:46;-5.30;99.90
23143;DHT22;11740;51.168;4.112;2022-12-17T08:18:32;-5.30;99.90
23143;DHT22;11740;51.168;4.112;2022-12-17T08:21:17;-5.30;1.00
23143;DHT22;11740;51.168;4.112;2022-12-17T08:24:03;-5.30;1.00
23143;DHT22;11740;51.168;4.112;2022-12-17T08:26:49;-5.30;1.00
23143;DHT22;11740;51.168;4.112;2022-12-17T08:29:34;-5.30;1.00
23143;DHT22;11740;51.168;4.112;2022-12-17T08:32:20;-5.30;1.00
23143;DHT22;11740;51.168;4.112;2022-12-17T08:35:05;-5.30;1.00
23143;DHT22;11740;51.168;4.112;2022-12-17T08:37:51;-5.30;97.70
23143;DHT22;11740;51.168;4.112;2022-12-17T08:40:37;-5.30;99.90
23143;DHT22;11740;51.168;4.112;2022-12-17T08:43:22;-5.30;99.90
23143;DHT22;11740;51.168;4.112;2022-12-17T08:46:08;-5.30;99.90
23143;DHT22;11740;51.168;4.112;2022-12-17T08:48:53;-5.30;99.90
23143;DHT22;11740;51.168;4.112;2022-12-17T08:51:39;-5.20;99.90
23143;DHT22;11740;51.168;4.112;2022-12-17T08:54:24;-5.20;99.90
23143;DHT22;11740;51.168;4.112;2022-12-17T08:57:10;-5.20;99.90
23143;DHT22;11740;51.168;4.112;2022-12-17T08:59:58;-5.20;99.90
23143;DHT22;11740;51.168;4.112;2022-12-17T09:02:44;-5.10;99.90
23143;DHT22;11740;51.168;4.112;2022-12-17T09:05:29;-5.10;99.90
23143;DHT22;11740;51.168;4.112;2022-12-17T09:08:15;-5.10;99.90
23143;DHT22;11740;51.168;4.112;2022-12-17T09:11:00;-5.10;1.00
23143;DHT22;11740;51.168;4.112;2022-12-17T09:13:45;-5.00;1.00
23143;DHT22;11740;51.168;4.112;2022-12-17T09:16:31;-5.00;1.00
23143;DHT22;11740;51.168;4.112;2022-12-17T09:19:17;-5.00;1.00
23143;DHT22;11740;51.168;4.112;2022-12-17T09:22:02;-4.90;1.00
23143;DHT22;11740;51.168;4.112;2022-12-17T09:24:52;-4.90;1.00
23143;DHT22;11740;51.168;4.112;2022-12-17T09:27:37;-4.90;1.00
23143;DHT22;11740;51.168;4.112;2022-12-17T09:30:23;-4.80;1.00
23143;DHT22;11740;51.168;4.112;2022-12-17T09:33:13;-4.80;1.00
23143;DHT22;11740;51.168;4.112;2022-12-17T09:36:04;-4.70;45.40
23143;DHT22;11740;51.168;4.112;2022-12-17T09:38:50;-4.70;18.10
23143;DHT22;11740;51.168;4.112;2022-12-17T09:42:25;-4.70;54.80
23143;DHT22;11740;51.168;4.112;2022-12-17T09:44:53;-4.60;99.90
23143;DHT22;11740;51.168;4.112;2022-12-17T09:48:06;-4.60;99.90
23143;DHT22;11740;51.168;4.112;2022-12-17T09:50:49;-4.50;99.90
23143;DHT22;11740;51.168;4.112;2022-12-17T09:53:36;-4.50;99.90
23143;DHT22;11740;51.168;4.112;2022-12-17T09:56:24;-4.50;99.90
23143;DHT22;11740;51.168;4.112;2022-12-17T09:59:21;-4.40;99.90
23143;DHT22;11740;51.168;4.112;2022-12-17T10:02:10;-4.40;99.90
23143;DHT22;11740;51.168;4.112;2022-12-17T10:05:10;-4.40;99.90
23143;DHT22;11740;51.168;4.112;2022-12-17T10:07:58;-4.30;99.90
23143;DHT22;11740;51.168;4.112;2022-12-17T10:10:45;-4.20;99.90
23143;DHT22;11740;51.168;4.112;2022-12-17T10:13:30;-4.20;1.00
23143;DHT22;11740;51.168;4.112;2022-12-17T10:16:26;-4.10;1.00
23143;DHT22;11740;51.168;4.112;2022-12-17T10:19:14;-4.10;1.00
23143;DHT22;11740;51.168;4.112;2022-12-17T10:22:10;-4.00;1.00
23143;DHT22;11740;51.168;4.112;2022-12-17T10:25:01;-3.90;1.00
23143;DHT22;11740;51.168;4.112;2022-12-17T10:27:50;-3.90;1.00
23143;DHT22;11740;51.168;4.112;2022-12-17T10:30:35;-3.80;1.00
23143;DHT22;11740;51.168;4.112;2022-12-17T10:33:21;-3.80;1.00
23143;DHT22;11740;51.168;4.112;2022-12-17T10:36:18;-3.80;1.00
23143;DHT22;11740;51.168;4.112;2022-12-17T10:39:05;-3.70;1.00
23143;DHT22;11740;51.168;4.112;2022-12-17T10:41:51;-3.50;44.40
23143;DHT22;11740;51.168;4.112;2022-12-17T10:44:36;-3.50;94.60
23143;DHT22;11740;51.168;4.112;2022-12-17T10:47:23;-3.40;19.30
23143;DHT22;11740;51.168;4.112;2022-12-17T10:50:16;-3.40;56.20
23143;DHT22;11740;51.168;4.112;2022-12-17T10:53:14;-3.20;99.90
23143;DHT22;11740;51.168;4.112;2022-12-17T10:56:02;-3.30;59.50
23143;DHT22;11740;51.168;4.112;2022-12-17T10:58:51;-3.10;99.90
23143;DHT22;11740;51.168;4.112;2022-12-17T11:01:38;-3.00;99.90
23143;DHT22;11740;51.168;4.112;2022-12-17T11:04:29;-2.90;99.90
23143;DHT22;11740;51.168;4.112;2022-12-17T11:07:28;-2.80;99.90
23143;DHT22;11740;51.168;4.112;2022-12-17T11:10:18;-2.80;99.90
23143;DHT22;11740;51.168;4.112;2022-12-17T11:13:07;-2.60;99.90
23143;DHT22;11740;51.168;4.112;2022-12-17T11:15:56;-2.60;99.90
23143;DHT22;11740;51.168;4.112;2022-12-17T11:19:12;-2.50;99.90
23143;DHT22;11740;51.168;4.112;2022-12-17T11:22:28;-2.50;99.90
23143;DHT22;11740;51.168;4.112;2022-12-17T11:25:43;-2.40;99.90
23143;DHT22;11740;51.168;4.112;2022-12-17T11:28:34;-2.30;99.90
23143;DHT22;11740;51.168;4.112;2022-12-17T11:40:54;-1.90;99.90
23143;DHT22;11740;51.168;4.112;2022-12-17T11:43:57;-1.90;99.90
23143;DHT22;11740;51.168;4.112;2022-12-17T11:53:01;-1.70;99.90
23143;DHT22;11740;51.168;4.112;2022-12-17T11:58:59;-1.30;99.90
23143;DHT22;11740;51.168;4.112;2022-12-17T12:02:26;-1.30;99.90
23143;DHT22;11740;51.168;4.112;2022-12-17T12:08:23;-1.00;1.00
23143;DHT22;11740;51.168;4.112;2022-12-17T12:11:14;-1.00;1.00
23143;DHT22;11740;51.168;4.112;2022-12-17T12:21:12;-0.80;99.90
23143;DHT22;11740;51.168;4.112;2022-12-17T12:27:18;-0.60;99.90
23143;DHT22;11740;51.168;4.112;2022-12-17T12:30:21;-0.50;85.00
23143;DHT22;11740;51.168;4.112;2022-12-17T12:33:17;-0.40;29.10
23143;DHT22;11740;51.168;4.112;2022-12-17T12:36:05;-0.30;1.00
23143;DHT22;11740;51.168;4.112;2022-12-17T12:38:54;-0.20;1.00
23143;DHT22;11740;51.168;4.112;2022-12-17T12:44:49;0.00;99.90
23143;DHT22;11740;51.168;4.112;2022-12-17T12:47:49;0.10;1.00
23143;DHT22;11740;51.168;4.112;2022-12-17T12:53:35;0.30;1.00
23143;DHT22;11740;51.168;4.112;2022-12-17T12:56:24;0.40;1.00
23143;DHT22;11740;51.168;4.112;2022-12-17T12:59:23;0.50;99.90
23143;DHT22;11740;51.168;4.112;2022-12-17T13:02:23;0.60;86.20
23143;DHT22;11740;51.168;4.112;2022-12-17T13:10:33;0.90;99.90
23143;DHT22;11740;51.168;4.112;2022-12-17T13:13:44;1.00;99.90
23143;DHT22;11740;51.168;4.112;2022-12-17T13:24:51;1.50;1.00
23143;DHT22;11740;51.168;4.112;2022-12-17T13:27:37;1.70;1.00
23143;DHT22;11740;51.168;4.112;2022-12-17T13:38:13;2.20;99.90
23143;DHT22;11740;51.168;4.112;2022-12-17T13:43:43;2.30;99.90
23143;DHT22;11740;51.168;4.112;2022-12-17T13:49:03;2.70;99.90
23143;DHT22;11740;51.168;4.112;2022-12-17T13:51:33;2.50;1.00
23143;DHT22;11740;51.168;4.112;2022-12-17T13:54:02;2.30;99.90
23143;DHT22;11740;51.168;4.112;2022-12-17T13:56:32;2.20;99.90
23143;DHT22;11740;51.168;4.112;2022-12-17T13:59:02;2.10;1.00
23143;DHT22;11740;51.168;4.112;2022-12-17T14:01:48;2.10;99.90
23143;DHT22;11740;51.168;4.112;2022-12-17T14:04:21;2.10;1.00
23143;DHT22;11740;51.168;4.112;2022-12-17T14:06:53;2.00;1.00
23143;DHT22;11740;51.168;4.112;2022-12-17T14:09:23;1.90;99.90
23143;DHT22;11740;51.168;4.112;2022-12-17T14:11:56;1.90;99.90
23143;DHT22;11740;51.168;4.112;2022-12-17T14:14:42;2.00;1.00
23143;DHT22;11740;51.168;4.112;2022-12-17T14:17:19;2.00;1.00
23143;DHT22;11740;51.168;4.112;2022-12-17T14:19:57;2.00;99.90
23143;DHT22;11740;51.168;4.112;2022-12-17T14:22:32;1.90;1.00
23143;DHT22;11740;51.168;4.112;2022-12-17T14:25:02;1.90;1.00
23143;DHT22;11740;51.168;4.112;2022-12-17T14:27:31;1.90;1.00
23143;DHT22;11740;51.168;4.112;2022-12-17T14:30:00;1.90;1.00
23143;DHT22;11740;51.168;4.112;2022-12-17T14:32:33;1.90;1.00
23143;DHT22;11740;51.168;4.112;2022-12-17T14:35:01;1.90;99.90
23143;DHT22;11740;51.168;4.112;2022-12-17T14:37:29;1.80;99.90
23143;DHT22;11740;51.168;4.112;2022-12-17T14:40:00;1.80;1.00
23143;DHT22;11740;51.168;4.112;2022-12-17T14:42:29;1.80;1.00
23143;DHT22;11740;51.168;4.112;2022-12-17T14:52:55;1.70;1.00
23143;DHT22;11740;51.168;4.112;2022-12-17T14:57:52;1.80;1.00
23143;DHT22;11740;51.168;4.112;2022-12-17T15:00:20;1.80;1.00
23143;DHT22;11740;51.168;4.112;2022-12-17T15:02:50;1.70;42.40
23143;DHT22;11740;51.168;4.112;2022-12-17T15:05:18;1.80;99.90
23143;DHT22;11740;51.168;4.112;2022-12-17T15:07:45;1.70;99.90
23143;DHT22;11740;51.168;4.112;2022-12-17T15:10:13;1.80;99.90
23143;DHT22;11740;51.168;4.112;2022-12-17T15:12:43;1.70;99.90
23143;DHT22;11740;51.168;4.112;2022-12-17T15:15:14;1.50;1.00
23143;DHT22;11740;51.168;4.112;2022-12-17T15:17:41;1.50;50.90
23143;DHT22;11740;51.168;4.112;2022-12-17T15:20:14;1.50;99.90
23143;DHT22;11740;51.168;4.112;2022-12-17T15:22:42;1.50;99.90
23143;DHT22;11740;51.168;4.112;2022-12-17T15:25:13;1.40;99.90
23143;DHT22;11740;51.168;4.112;2022-12-17T15:27:41;1.40;99.90
23143;DHT22;11740;51.168;4.112;2022-12-17T15:30:12;1.30;99.90
23143;DHT22;11740;51.168;4.112;2022-12-17T15:32:40;1.30;99.90
23143;DHT22;11740;51.168;4.112;2022-12-17T15:35:08;1.20;99.90
23143;DHT22;11740;51.168;4.112;2022-12-17T15:37:35;1.10;1.00
23143;DHT22;11740;51.168;4.112;2022-12-17T15:40:03;1.10;99.90
23143;DHT22;11740;51.168;4.112;2022-12-17T15:42:31;1.10;99.90
23143;DHT22;11740;51.168;4.112;2022-12-17T15:45:16;1.00;87.70
23143;DHT22;11740;51.168;4.112;2022-12-17T15:47:43;0.90;1.00
23143;DHT22;11740;51.168;4.112;2022-12-17T15:50:10;0.80;79.50
23143;DHT22;11740;51.168;4.112;2022-12-17T15:52:37;0.80;66.00
23143;DHT22;11740;51.168;4.112;2022-12-17T15:55:04;0.80;1.00
23143;DHT22;11740;51.168;4.112;2022-12-17T15:57:31;0.80;99.90
23143;DHT22;11740;51.168;4.112;2022-12-17T15:59:57;0.70;1.00
23143;DHT22;11740;51.168;4.112;2022-12-17T16:02:26;0.60;99.90
23143;DHT22;11740;51.168;4.112;2022-12-17T16:04:53;0.50;1.00
23143;DHT22;11740;51.168;4.112;2022-12-17T16:07:20;0.40;1.00
23143;DHT22;11740;51.168;4.112;2022-12-17T16:09:47;0.40;1.00
23143;DHT22;11740;51.168;4.112;2022-12-17T16:12:14;0.30;1.00
23143;DHT22;11740;51.168;4.112;2022-12-17T16:14:41;0.30;1.00
23143;DHT22;11740;51.168;4.112;2022-12-17T16:17:07;0.20;2.20
23143;DHT22;11740;51.168;4.112;2022-12-17T16:19:34;0.20;1.00
23143;DHT22;11740;51.168;4.112;2022-12-17T16:22:01;0.10;63.10
23143;DHT22;11740;51.168;4.112;2022-12-17T16:24:28;0.00;1.00
23143;DHT22;11740;51.168;4.112;2022-12-17T16:26:55;0.00;1.00
23143;DHT22;11740;51.168;4.112;2022-12-17T16:29:29;0.00;1.00
23143;DHT22;11740;51.168;4.112;2022-12-17T16:31:56;-0.10;1.00
23143;DHT22;11740;51.168;4.112;2022-12-17T16:34:23;-0.10;88.60
23143;DHT22;11740;51.168;4.112;2022-12-17T16:36:50;-0.20;1.00
23143;DHT22;11740;51.168;4.112;2022-12-17T16:39:17;-0.20;1.00
23143;DHT22;11740;51.168;4.112;2022-12-17T16:41:45;-0.40;1.00
23143;DHT22;11740;51.168;4.112;2022-12-17T16:44:12;-0.40;18.60
23143;DHT22;11740;51.168;4.112;2022-12-17T16:46:39;-0.50;1.00
23143;DHT22;11740;51.168;4.112;2022-12-17T16:49:14;-0.50;1.00
23143;DHT22;11740;51.168;4.112;2022-12-17T16:51:44;-0.60;10.50
23143;DHT22;11740;51.168;4.112;2022-12-17T16:54:12;-0.70;1.00
23143;DHT22;11740;51.168;4.112;2022-12-17T16:56:41;-0.70;1.00
23143;DHT22;11740;51.168;4.112;2022-12-17T16:59:09;-0.80;1.00
23143;DHT22;11740;51.168;4.112;2022-12-17T17:01:37;-0.80;72.80
23143;DHT22;11740;51.168;4.112;2022-12-17T17:04:05;-0.90;13.80
23143;DHT22;11740;51.168;4.112;2022-12-17T17:06:39;-0.90;56.10
23143;DHT22;11740;51.168;4.112;2022-12-17T17:09:08;-1.00;1.00
23143;DHT22;11740;51.168;4.112;2022-12-17T17:11:35;-1.00;99.90
23143;DHT22;11740;51.168;4.112;2022-12-17T17:14:02;-1.00;99.90
23143;DHT22;11740;51.168;4.112;2022-12-17T17:16:30;-1.10;42.30
23143;DHT22;11740;51.168;4.112;2022-12-17T17:18:57;-1.20;99.90
23143;DHT22;11740;51.168;4.112;2022-12-17T17:21:28;-1.30;99.90
23143;DHT22;11740;51.168;4.112;2022-12-17T17:24:03;-1.30;99.90
23143;DHT22;11740;51.168;4.112;2022-12-17T17:26:33;-1.30;99.90
23143;DHT22;11740;51.168;4.112;2022-12-17T17:29:00;-1.30;99.90
23143;DHT22;11740;51.168;4.112;2022-12-17T17:31:27;-1.30;99.90
23143;DHT22;11740;51.168;4.112;2022-12-17T17:34:14;-1.40;99.90
23143;DHT22;11740;51.168;4.112;2022-12-17T17:36:41;-1.50;99.90
23143;DHT22;11740;51.168;4.112;2022-12-17T17:39:11;-1.50;99.90
23143;DHT22;11740;51.168;4.112;2022-12-17T17:41:37;-1.50;1.00
23143;DHT22;11740;51.168;4.112;2022-12-17T17:44:05;-1.50;1.00
23143;DHT22;11740;51.168;4.112;2022-12-17T17:46:34;-1.60;99.90
23143;DHT22;11740;51.168;4.112;2022-12-17T17:49:02;-1.60;1.00
23143;DHT22;11740;51.168;4.112;2022-12-17T17:51:30;-1.70;1.00
23143;DHT22;11740;51.168;4.112;2022-12-17T17:54:19;-1.80;1.00
23143;DHT22;11740;51.168;4.112;2022-12-17T17:56:46;-1.70;1.00
23143;DHT22;11740;51.168;4.112;2022-12-17T17:59:13;-1.80;1.00
23143;DHT22;11740;51.168;4.112;2022-12-17T18:01:45;-1.80;1.00
23143;DHT22;11740;51.168;4.112;2022-12-17T18:04:18;-1.80;1.00
23143;DHT22;11740;51.168;4.112;2022-12-17T18:06:47;-1.80;1.00
23143;DHT22;11740;51.168;4.112;2022-12-17T18:09:34;-1.80;1.00
23143;DHT22;11740;51.168;4.112;2022-12-17T18:12:01;-1.90;1.00
23143;DHT22;11740;51.168;4.112;2022-12-17T18:14:48;-1.80;1.00
23143;DHT22;11740;51.168;4.112;2022-12-17T18:17:35;-1.90;1.00
23143;DHT22;11740;51.168;4.112;2022-12-17T18:20:02;-1.90;1.00
23143;DHT22;11740;51.168;4.112;2022-12-17T18:22:29;-1.90;1.00
23143;DHT22;11740;51.168;4.112;2022-12-17T18:24:56;-1.90;1.00
23143;DHT22;11740;51.168;4.112;2022-12-17T18:27:23;-1.90;1.00
23143;DHT22;11740;51.168;4.112;2022-12-17T18:29:49;-1.90;1.00
23143;DHT22;11740;51.168;4.112;2022-12-17T18:32:16;-2.00;1.00
23143;DHT22;11740;51.168;4.112;2022-12-17T18:34:43;-2.10;46.90
23143;DHT22;11740;51.168;4.112;2022-12-17T18:37:10;-2.10;99.90
23143;DHT22;11740;51.168;4.112;2022-12-17T18:39:37;-2.10;99.90
23143;DHT22;11740;51.168;4.112;2022-12-17T18:42:04;-2.20;99.90
23143;DHT22;11740;51.168;4.112;2022-12-17T18:44:49;-2.10;99.90